Flight Track Log - Related Links

Times and Time Zones

All times are in EDT time to prevent confusion due to time zone crossing. See the N76AD flight status page for this flight to view local times or setup timezone preferences in your user account.

Time Position Orientation Groundspeed Altitude Reporting Facility
EDT Latitude Longitude Course Direction KTS MPH feet Rate Location/Type
06:19PM 29.1308 -81.0931 232° Southwest 107 123 2,700  Level Jacksonville Center
06:20PM 29.1144 -81.1172 232° Southwest 100 115 3,400 615 Climbing Jacksonville Center
06:22PM 29.0833 -81.1833 242° Southwest 91 105 4,800 529 Climbing Orlando TRACON
06:23PM 29.0833 -81.2000 270° West 92 106 5,200 450 Climbing Orlando TRACON
06:24PM 29.0833 -81.2333 270° West 92 106 5,700 500 Climbing Orlando TRACON
06:25PM 29.0667 -81.2500 221° Southwest 88 101 6,200 350 Climbing Orlando TRACON
06:26PM 29.0500 -81.2833 240° Southwest 92 106 6,400 50 Climbing Orlando TRACON
06:27PM 29.0333 -81.3000 221° Southwest 108 124 6,300 -100 Descending Orlando TRACON
06:28PM 29.0000 -81.3333 221° Southwest 104 120 6,200 50 Descending Orlando TRACON
06:29PM 28.9833 -81.3500 221° Southwest 95 109 6,400 158 Climbing Orlando TRACON
06:30PM 28.9667 -81.3667 221° Southwest 95 109 6,500 105 Climbing Orlando TRACON
06:31PM 28.9500 -81.4000 240° Southwest 98 113 6,600  Climbing Orlando TRACON
06:32PM 28.9333 -81.4167 221° Southwest 105 121 6,500 -105 Descending Orlando TRACON
06:33PM 28.9167 -81.4333 221° Southwest 110 127 6,400 -100 Descending Orlando TRACON
06:34PM 28.9000 -81.4667 240° Southwest 107 123 6,300 -48 Descending Orlando TRACON
06:35PM 28.8833 -81.4833 221° Southwest 101 116 6,300 104 Level Orlando TRACON
06:36PM 28.8667 -81.5167 240° Southwest 96 110 6,500 52 Climbing Orlando TRACON
06:37PM 28.8500 -81.5333 221° Southwest 101 116 6,400 -50 Descending Orlando TRACON
06:38PM 28.8167 -81.5667 221° Southwest 101 116 6,400  Level Orlando TRACON
06:39PM 28.8000 -81.5833 221° Southwest 99 114 6,400  Level Orlando TRACON
06:40PM 28.7833 -81.6000 221° Southwest 101 116 6,400  Level Orlando TRACON
06:41PM 28.7667 -81.6333 240° Southwest 101 116 6,400  Level Orlando TRACON
06:42PM 28.7333 -81.6500 204° Southwest 97 112 6,400  Level Orlando TRACON
06:43PM 28.7167 -81.6667 221° Southwest 101 116 6,400 50 Level Orlando TRACON
06:44PM 28.7000 -81.7000 240° Southwest 100 115 6,500 48 Climbing Orlando TRACON
06:45PM 28.6833 -81.7167 221° Southwest 103 119 6,500  Level Orlando TRACON
06:46PM 28.6667 -81.7500 240° Southwest 106 122 6,500  Level Orlando TRACON
06:47PM 28.6500 -81.7667 221° Southwest 110 127 6,500 -48 Level Orlando TRACON
06:48PM 28.6167 -81.8000 221° Southwest 108 124 6,400 -50 Descending Orlando TRACON
06:49PM 28.6000 -81.8167 221° Southwest 108 124 6,400  Level Orlando TRACON
06:51PM 28.5559 -81.8608 221° Southwest  Level FlightAware Approximate
06:58PM 28.3186 -82.1409 229° Southwest  Level FlightAware Approximate
06:59PM 28.2862 -82.1826 229° Southwest  Level FlightAware Approximate
07:00PM 28.2538 -82.2242 229° Southwest  Level FlightAware Approximate
07:01PM 28.2214 -82.2658 229° Southwest  Level FlightAware Approximate
07:02PM 28.1890 -82.3074 229° Southwest  Level FlightAware Approximate
07:03PM 28.1566 -82.3489 228° Southwest  Level FlightAware Approximate
07:04PM 28.1241 -82.3904 228° Southwest  Level FlightAware Approximate
07:05PM 28.0930 -82.4332 231° Southwest  Level FlightAware Approximate
07:06PM 28.0622 -82.4763 231° Southwest  Level FlightAware Approximate
07:07PM 28.0310 -82.5190 221° Southwest  Level FlightAware Approximate
07:08PM 27.9944 -82.5556 221° Southwest  Level FlightAware Approximate
07:09PM 27.9627 -82.5976 233° Southwest  Level FlightAware Approximate
07:10PM 27.9320 -82.6407 230° Southwest  Level FlightAware Approximate
07:11PM 27.9004 -82.6829 230° Southwest  Level FlightAware Approximate
07:12PM 27.9000 -82.6833 230° Southwest  Level FlightAware Approximate
07:13PM 27.9100 -82.6875 230° Southwest  Level Estimated
07:14PM 27.9100 -82.6875 230° Southwest  Level Estimated
07:15PM 27.9100 -82.6875 230° Southwest  Level Estimated
07:16PM 27.9100 -82.6875 230° Southwest  Level Estimated
07:17PM 27.9100 -82.6875 230° Southwest  Level Estimated
07:18PM 27.9100 -82.6875 230° Southwest  Level Estimated
07:19PM 27.9100 -82.6875 230° Southwest  Level Estimated
07:20PM 27.9100 -82.6875 230° Southwest  Level Estimated
07:21PM 27.9100 -82.6875 230° Southwest  Level Estimated
07:22PM 27.9100 -82.6875 230° Southwest  Level Estimated
07:23PM 27.9100 -82.6875 230° Southwest  Level Estimated
07:24PM 27.9100 -82.6875 230° Southwest  Level Estimated
07:25PM 27.9100 -82.6875 230° Southwest  Level Estimated
07:26PM 27.9100 -82.6875 230° Southwest  Level Estimated
07:27PM 27.9100 -82.6875 230° Southwest  Level Estimated
07:28PM 27.9100 -82.6875 230° Southwest  Level Estimated
07:29PM 27.9100 -82.6875 230° Southwest  Level Estimated
07:30PM 27.9100 -82.6875 230° Southwest  Level Estimated
07:31PM 27.9100 -82.6875 230° Southwest  Level Estimated
07:32PM 27.9100 -82.6875 230° Southwest  Level Estimated
07:33PM 27.9100 -82.6875 230° Southwest  Level Estimated

Login

Don't have an account? Register now (free) for customized features, flight alerts, and more!